sensor_id;sensor_type;location;lat;lon;timestamp;temperature;humidity
21039;DHT22;10678;51.002;4.786;2022-08-19T00:00:36;20.30;99.90
21039;DHT22;10678;51.002;4.786;2022-08-19T00:03:03;20.30;99.90
21039;DHT22;10678;51.002;4.786;2022-08-19T00:05:29;20.30;99.90
21039;DHT22;10678;51.002;4.786;2022-08-19T00:07:54;20.20;99.90
21039;DHT22;10678;51.002;4.786;2022-08-19T00:10:21;20.10;99.90
21039;DHT22;10678;51.002;4.786;2022-08-19T00:12:47;20.20;99.90
21039;DHT22;10678;51.002;4.786;2022-08-19T00:15:14;20.20;99.90
21039;DHT22;10678;51.002;4.786;2022-08-19T00:17:42;20.20;99.90
21039;DHT22;10678;51.002;4.786;2022-08-19T00:20:10;20.10;99.90
21039;DHT22;10678;51.002;4.786;2022-08-19T00:22:37;20.10;99.90
21039;DHT22;10678;51.002;4.786;2022-08-19T00:25:04;20.10;99.90
21039;DHT22;10678;51.002;4.786;2022-08-19T00:27:30;20.10;99.90
21039;DHT22;10678;51.002;4.786;2022-08-19T00:29:55;20.10;99.90
21039;DHT22;10678;51.002;4.786;2022-08-19T00:32:21;20.10;99.90
21039;DHT22;10678;51.002;4.786;2022-08-19T00:34:47;20.10;99.90
21039;DHT22;10678;51.002;4.786;2022-08-19T00:37:12;20.20;99.90
21039;DHT22;10678;51.002;4.786;2022-08-19T00:39:38;20.20;99.90
21039;DHT22;10678;51.002;4.786;2022-08-19T00:42:04;20.20;99.90
21039;DHT22;10678;51.002;4.786;2022-08-19T00:44:31;20.20;99.90
21039;DHT22;10678;51.002;4.786;2022-08-19T00:46:58;20.20;99.90
21039;DHT22;10678;51.002;4.786;2022-08-19T00:51:53;20.20;99.90
21039;DHT22;10678;51.002;4.786;2022-08-19T00:54:20;20.20;99.90
21039;DHT22;10678;51.002;4.786;2022-08-19T00:56:47;20.20;99.90
21039;DHT22;10678;51.002;4.786;2022-08-19T00:59:14;20.10;99.90
21039;DHT22;10678;51.002;4.786;2022-08-19T01:01:41;20.10;99.90
21039;DHT22;10678;51.002;4.786;2022-08-19T01:04:08;20.10;99.90
21039;DHT22;10678;51.002;4.786;2022-08-19T01:06:35;20.10;99.90
21039;DHT22;10678;51.002;4.786;2022-08-19T01:09:03;20.00;99.90
21039;DHT22;10678;51.002;4.786;2022-08-19T01:11:31;20.00;99.90
21039;DHT22;10678;51.002;4.786;2022-08-19T01:13:58;20.00;99.90
21039;DHT22;10678;51.002;4.786;2022-08-19T01:16:27;20.00;99.90
21039;DHT22;10678;51.002;4.786;2022-08-19T01:18:53;20.00;99.90
21039;DHT22;10678;51.002;4.786;2022-08-19T01:21:31;20.00;99.90
21039;DHT22;10678;51.002;4.786;2022-08-19T01:23:58;20.00;99.90
21039;DHT22;10678;51.002;4.786;2022-08-19T01:26:26;19.90;99.90
21039;DHT22;10678;51.002;4.786;2022-08-19T01:28:54;19.90;99.90
21039;DHT22;10678;51.002;4.786;2022-08-19T01:31:25;19.90;99.90
21039;DHT22;10678;51.002;4.786;2022-08-19T01:33:53;20.00;99.90
21039;DHT22;10678;51.002;4.786;2022-08-19T01:36:29;19.90;99.90
21039;DHT22;10678;51.002;4.786;2022-08-19T01:38:55;19.90;99.90
21039;DHT22;10678;51.002;4.786;2022-08-19T01:41:21;19.80;99.90
21039;DHT22;10678;51.002;4.786;2022-08-19T01:43:49;19.90;99.90
21039;DHT22;10678;51.002;4.786;2022-08-19T01:46:15;19.90;99.90
21039;DHT22;10678;51.002;4.786;2022-08-19T01:48:42;19.90;99.90
21039;DHT22;10678;51.002;4.786;2022-08-19T01:51:09;19.90;99.90
21039;DHT22;10678;51.002;4.786;2022-08-19T01:53:36;19.80;99.90
21039;DHT22;10678;51.002;4.786;2022-08-19T01:56:03;19.90;99.90
21039;DHT22;10678;51.002;4.786;2022-08-19T01:58:36;19.80;99.90
21039;DHT22;10678;51.002;4.786;2022-08-19T02:01:05;19.70;99.90
21039;DHT22;10678;51.002;4.786;2022-08-19T02:03:31;19.70;99.90
21039;DHT22;10678;51.002;4.786;2022-08-19T02:05:59;19.70;99.90
21039;DHT22;10678;51.002;4.786;2022-08-19T02:08:29;19.70;99.90
21039;DHT22;10678;51.002;4.786;2022-08-19T02:10:55;19.70;99.90
21039;DHT22;10678;51.002;4.786;2022-08-19T02:13:21;19.70;99.90
21039;DHT22;10678;51.002;4.786;2022-08-19T02:15:47;19.70;99.90
21039;DHT22;10678;51.002;4.786;2022-08-19T02:18:13;19.70;99.90
21039;DHT22;10678;51.002;4.786;2022-08-19T02:20:39;19.70;99.90
21039;DHT22;10678;51.002;4.786;2022-08-19T02:23:07;19.80;99.90
21039;DHT22;10678;51.002;4.786;2022-08-19T02:25:33;19.80;99.90
21039;DHT22;10678;51.002;4.786;2022-08-19T02:27:58;19.80;99.90
21039;DHT22;10678;51.002;4.786;2022-08-19T02:30:25;19.80;99.90
21039;DHT22;10678;51.002;4.786;2022-08-19T02:32:51;19.80;99.90
21039;DHT22;10678;51.002;4.786;2022-08-19T02:35:17;19.70;99.90
21039;DHT22;10678;51.002;4.786;2022-08-19T02:37:43;19.70;99.90
21039;DHT22;10678;51.002;4.786;2022-08-19T02:40:29;19.70;99.90
21039;DHT22;10678;51.002;4.786;2022-08-19T02:42:58;19.70;99.90
21039;DHT22;10678;51.002;4.786;2022-08-19T02:45:24;19.60;99.90
21039;DHT22;10678;51.002;4.786;2022-08-19T02:47:49;19.60;99.90
21039;DHT22;10678;51.002;4.786;2022-08-19T02:50:15;19.60;99.90
21039;DHT22;10678;51.002;4.786;2022-08-19T02:52:40;19.60;99.90
21039;DHT22;10678;51.002;4.786;2022-08-19T02:55:07;19.60;99.90
21039;DHT22;10678;51.002;4.786;2022-08-19T02:57:32;19.60;99.90
21039;DHT22;10678;51.002;4.786;2022-08-19T02:59:59;19.50;99.90
21039;DHT22;10678;51.002;4.786;2022-08-19T03:02:25;19.40;99.90
21039;DHT22;10678;51.002;4.786;2022-08-19T03:04:51;19.40;99.90
21039;DHT22;10678;51.002;4.786;2022-08-19T03:07:17;19.30;99.90
21039;DHT22;10678;51.002;4.786;2022-08-19T03:09:44;19.30;99.90
21039;DHT22;10678;51.002;4.786;2022-08-19T03:12:10;19.30;99.90
21039;DHT22;10678;51.002;4.786;2022-08-19T03:14:36;19.40;99.90
21039;DHT22;10678;51.002;4.786;2022-08-19T03:17:03;19.40;99.90
21039;DHT22;10678;51.002;4.786;2022-08-19T03:19:30;19.40;99.90
21039;DHT22;10678;51.002;4.786;2022-08-19T03:21:57;19.40;99.90
21039;DHT22;10678;51.002;4.786;2022-08-19T03:24:23;19.30;99.90
21039;DHT22;10678;51.002;4.786;2022-08-19T03:26:53;19.20;99.90
21039;DHT22;10678;51.002;4.786;2022-08-19T03:29:22;19.20;99.90
21039;DHT22;10678;51.002;4.786;2022-08-19T03:31:47;19.30;99.90
21039;DHT22;10678;51.002;4.786;2022-08-19T03:34:16;19.20;99.90
21039;DHT22;10678;51.002;4.786;2022-08-19T03:36:43;19.10;99.90
21039;DHT22;10678;51.002;4.786;2022-08-19T03:39:10;19.10;99.90
21039;DHT22;10678;51.002;4.786;2022-08-19T03:41:37;19.10;99.90
21039;DHT22;10678;51.002;4.786;2022-08-19T03:44:04;19.10;99.90
21039;DHT22;10678;51.002;4.786;2022-08-19T03:46:31;19.10;99.90
21039;DHT22;10678;51.002;4.786;2022-08-19T03:49:00;19.00;99.90
21039;DHT22;10678;51.002;4.786;2022-08-19T03:51:32;19.00;99.90
21039;DHT22;10678;51.002;4.786;2022-08-19T03:53:59;19.00;99.90
21039;DHT22;10678;51.002;4.786;2022-08-19T03:56:26;18.90;99.90
21039;DHT22;10678;51.002;4.786;2022-08-19T03:58:54;18.90;99.90
21039;DHT22;10678;51.002;4.786;2022-08-19T04:01:22;18.90;99.90
21039;DHT22;10678;51.002;4.786;2022-08-19T04:03:49;18.80;99.90
21039;DHT22;10678;51.002;4.786;2022-08-19T04:06:19;18.90;99.90
21039;DHT22;10678;51.002;4.786;2022-08-19T04:08:47;18.90;99.90
21039;DHT22;10678;51.002;4.786;2022-08-19T04:11:15;18.80;99.90
21039;DHT22;10678;51.002;4.786;2022-08-19T04:13:41;18.80;99.90
21039;DHT22;10678;51.002;4.786;2022-08-19T04:16:09;18.80;99.90
21039;DHT22;10678;51.002;4.786;2022-08-19T04:18:36;18.80;99.90
21039;DHT22;10678;51.002;4.786;2022-08-19T04:21:03;18.80;99.90
21039;DHT22;10678;51.002;4.786;2022-08-19T04:23:29;18.70;99.90
21039;DHT22;10678;51.002;4.786;2022-08-19T04:25:55;18.70;99.90
21039;DHT22;10678;51.002;4.786;2022-08-19T04:28:22;18.70;99.90
21039;DHT22;10678;51.002;4.786;2022-08-19T04:30:50;18.70;99.90
21039;DHT22;10678;51.002;4.786;2022-08-19T04:33:18;18.70;99.90
21039;DHT22;10678;51.002;4.786;2022-08-19T04:35:46;18.60;99.90
21039;DHT22;10678;51.002;4.786;2022-08-19T04:38:13;18.70;99.90
21039;DHT22;10678;51.002;4.786;2022-08-19T04:40:45;18.60;99.90
21039;DHT22;10678;51.002;4.786;2022-08-19T04:43:30;18.60;99.90
21039;DHT22;10678;51.002;4.786;2022-08-19T04:45:56;18.60;99.90
21039;DHT22;10678;51.002;4.786;2022-08-19T04:48:23;18.60;99.90
21039;DHT22;10678;51.002;4.786;2022-08-19T04:50:53;18.60;99.90
21039;DHT22;10678;51.002;4.786;2022-08-19T04:53:24;18.60;99.90
21039;DHT22;10678;51.002;4.786;2022-08-19T04:55:50;18.60;99.90
21039;DHT22;10678;51.002;4.786;2022-08-19T04:58:16;18.60;99.90
21039;DHT22;10678;51.002;4.786;2022-08-19T05:00:43;18.60;99.90
21039;DHT22;10678;51.002;4.786;2022-08-19T05:03:09;18.60;99.90
21039;DHT22;10678;51.002;4.786;2022-08-19T05:05:39;18.50;99.90
21039;DHT22;10678;51.002;4.786;2022-08-19T05:08:05;18.50;99.90
21039;DHT22;10678;51.002;4.786;2022-08-19T05:10:31;18.50;99.90
21039;DHT22;10678;51.002;4.786;2022-08-19T05:12:56;18.60;99.90
21039;DHT22;10678;51.002;4.786;2022-08-19T05:15:23;18.60;99.90
21039;DHT22;10678;51.002;4.786;2022-08-19T05:17:48;18.60;99.90
21039;DHT22;10678;51.002;4.786;2022-08-19T05:20:33;18.60;99.90
21039;DHT22;10678;51.002;4.786;2022-08-19T05:23:17;18.60;99.90
21039;DHT22;10678;51.002;4.786;2022-08-19T05:25:43;18.60;99.90
21039;DHT22;10678;51.002;4.786;2022-08-19T05:28:09;18.60;99.90
21039;DHT22;10678;51.002;4.786;2022-08-19T05:30:35;18.70;99.90
21039;DHT22;10678;51.002;4.786;2022-08-19T05:33:00;18.70;99.90
21039;DHT22;10678;51.002;4.786;2022-08-19T05:35:26;18.70;99.90
21039;DHT22;10678;51.002;4.786;2022-08-19T05:37:53;18.80;99.90
21039;DHT22;10678;51.002;4.786;2022-08-19T05:40:19;18.80;99.90
21039;DHT22;10678;51.002;4.786;2022-08-19T05:42:45;18.90;99.90
21039;DHT22;10678;51.002;4.786;2022-08-19T05:45:11;18.90;99.90
21039;DHT22;10678;51.002;4.786;2022-08-19T05:47:37;18.80;99.90
21039;DHT22;10678;51.002;4.786;2022-08-19T05:50:03;19.00;99.90
21039;DHT22;10678;51.002;4.786;2022-08-19T05:52:29;19.00;99.90
21039;DHT22;10678;51.002;4.786;2022-08-19T05:54:55;19.00;99.90
21039;DHT22;10678;51.002;4.786;2022-08-19T05:57:21;19.00;99.90
21039;DHT22;10678;51.002;4.786;2022-08-19T05:59:47;19.10;99.90
21039;DHT22;10678;51.002;4.786;2022-08-19T06:02:13;19.30;99.90
21039;DHT22;10678;51.002;4.786;2022-08-19T06:04:39;19.40;99.90
21039;DHT22;10678;51.002;4.786;2022-08-19T06:07:08;19.50;99.90
21039;DHT22;10678;51.002;4.786;2022-08-19T06:09:34;19.60;99.90
21039;DHT22;10678;51.002;4.786;2022-08-19T06:12:00;19.70;99.90
21039;DHT22;10678;51.002;4.786;2022-08-19T06:14:30;19.90;99.90
21039;DHT22;10678;51.002;4.786;2022-08-19T06:16:57;19.90;99.90
21039;DHT22;10678;51.002;4.786;2022-08-19T06:19:23;20.00;99.90
21039;DHT22;10678;51.002;4.786;2022-08-19T06:21:53;20.20;99.90
21039;DHT22;10678;51.002;4.786;2022-08-19T06:24:22;20.30;99.90
21039;DHT22;10678;51.002;4.786;2022-08-19T06:26:52;20.40;99.90
21039;DHT22;10678;51.002;4.786;2022-08-19T06:29:21;20.50;99.90
21039;DHT22;10678;51.002;4.786;2022-08-19T06:31:49;20.60;99.90
21039;DHT22;10678;51.002;4.786;2022-08-19T06:34:15;20.80;99.90
21039;DHT22;10678;51.002;4.786;2022-08-19T06:36:50;20.90;99.90
21039;DHT22;10678;51.002;4.786;2022-08-19T06:39:22;20.90;99.90
21039;DHT22;10678;51.002;4.786;2022-08-19T06:41:51;21.10;99.90
21039;DHT22;10678;51.002;4.786;2022-08-19T06:44:18;21.20;99.90
21039;DHT22;10678;51.002;4.786;2022-08-19T06:46:44;21.50;99.90
21039;DHT22;10678;51.002;4.786;2022-08-19T06:49:09;21.60;99.90
21039;DHT22;10678;51.002;4.786;2022-08-19T06:51:37;21.70;99.90
21039;DHT22;10678;51.002;4.786;2022-08-19T06:54:03;21.80;99.90
21039;DHT22;10678;51.002;4.786;2022-08-19T06:56:30;22.10;99.90
21039;DHT22;10678;51.002;4.786;2022-08-19T06:58:57;22.20;99.90
21039;DHT22;10678;51.002;4.786;2022-08-19T07:01:23;22.30;99.90
21039;DHT22;10678;51.002;4.786;2022-08-19T07:03:49;22.40;99.90
21039;DHT22;10678;51.002;4.786;2022-08-19T07:06:17;22.50;99.90
21039;DHT22;10678;51.002;4.786;2022-08-19T07:08:46;22.70;99.90
21039;DHT22;10678;51.002;4.786;2022-08-19T07:11:15;22.90;99.90
21039;DHT22;10678;51.002;4.786;2022-08-19T07:13:41;23.10;99.90
21039;DHT22;10678;51.002;4.786;2022-08-19T07:16:13;23.10;99.90
21039;DHT22;10678;51.002;4.786;2022-08-19T07:18:39;23.30;99.90
21039;DHT22;10678;51.002;4.786;2022-08-19T07:21:08;23.40;99.90
21039;DHT22;10678;51.002;4.786;2022-08-19T07:23:34;23.50;99.90
21039;DHT22;10678;51.002;4.786;2022-08-19T07:26:07;23.50;99.90
21039;DHT22;10678;51.002;4.786;2022-08-19T07:28:33;23.40;99.90
21039;DHT22;10678;51.002;4.786;2022-08-19T07:31:00;23.30;99.90
21039;DHT22;10678;51.002;4.786;2022-08-19T07:33:27;23.10;99.90
21039;DHT22;10678;51.002;4.786;2022-08-19T07:35:53;23.30;99.90
21039;DHT22;10678;51.002;4.786;2022-08-19T07:38:20;23.90;99.90
21039;DHT22;10678;51.002;4.786;2022-08-19T07:40:45;24.60;99.90
21039;DHT22;10678;51.002;4.786;2022-08-19T07:43:11;25.40;99.90
21039;DHT22;10678;51.002;4.786;2022-08-19T07:45:37;25.90;99.90
21039;DHT22;10678;51.002;4.786;2022-08-19T07:48:02;26.20;99.90
21039;DHT22;10678;51.002;4.786;2022-08-19T07:50:29;27.30;99.90
21039;DHT22;10678;51.002;4.786;2022-08-19T07:52:55;28.50;99.90
21039;DHT22;10678;51.002;4.786;2022-08-19T07:55:24;29.20;99.90
21039;DHT22;10678;51.002;4.786;2022-08-19T07:57:50;29.10;99.90
21039;DHT22;10678;51.002;4.786;2022-08-19T08:00:18;28.30;99.90
21039;DHT22;10678;51.002;4.786;2022-08-19T08:02:43;28.40;99.90
21039;DHT22;10678;51.002;4.786;2022-08-19T08:05:10;28.80;99.90
21039;DHT22;10678;51.002;4.786;2022-08-19T08:07:55;28.60;99.90
21039;DHT22;10678;51.002;4.786;2022-08-19T08:10:39;28.40;99.90
21039;DHT22;10678;51.002;4.786;2022-08-19T08:13:05;28.90;99.90
21039;DHT22;10678;51.002;4.786;2022-08-19T08:15:31;29.20;99.90
21039;DHT22;10678;51.002;4.786;2022-08-19T08:17:57;29.30;99.90
21039;DHT22;10678;51.002;4.786;2022-08-19T08:20:23;29.30;99.90
21039;DHT22;10678;51.002;4.786;2022-08-19T08:22:49;30.00;99.90
21039;DHT22;10678;51.002;4.786;2022-08-19T08:25:34;30.40;99.90
21039;DHT22;10678;51.002;4.786;2022-08-19T08:28:01;30.30;99.90
21039;DHT22;10678;51.002;4.786;2022-08-19T08:30:29;31.00;99.90
21039;DHT22;10678;51.002;4.786;2022-08-19T08:32:55;31.90;99.90
21039;DHT22;10678;51.002;4.786;2022-08-19T08:35:22;32.70;99.90
21039;DHT22;10678;51.002;4.786;2022-08-19T08:37:49;32.60;99.90
21039;DHT22;10678;51.002;4.786;2022-08-19T08:40:28;33.40;99.90
21039;DHT22;10678;51.002;4.786;2022-08-19T08:43:07;33.90;99.90
21039;DHT22;10678;51.002;4.786;2022-08-19T08:45:36;33.60;99.90
21039;DHT22;10678;51.002;4.786;2022-08-19T08:48:14;32.70;99.90
21039;DHT22;10678;51.002;4.786;2022-08-19T08:50:43;31.70;99.90
21039;DHT22;10678;51.002;4.786;2022-08-19T08:53:12;30.80;99.90
21039;DHT22;10678;51.002;4.786;2022-08-19T08:55:40;29.90;99.90
21039;DHT22;10678;51.002;4.786;2022-08-19T08:58:12;29.30;99.90
21039;DHT22;10678;51.002;4.786;2022-08-19T09:00:45;28.80;99.90
21039;DHT22;10678;51.002;4.786;2022-08-19T09:03:18;28.80;99.90
21039;DHT22;10678;51.002;4.786;2022-08-19T09:06:02;29.20;99.90
21039;DHT22;10678;51.002;4.786;2022-08-19T09:09:04;29.40;99.90
21039;DHT22;10678;51.002;4.786;2022-08-19T09:17:11;28.50;99.90
21039;DHT22;10678;51.002;4.786;2022-08-19T09:20:02;28.30;99.90
21039;DHT22;10678;51.002;4.786;2022-08-19T09:22:34;28.20;99.90
21039;DHT22;10678;51.002;4.786;2022-08-19T09:25:01;28.10;99.90
21039;DHT22;10678;51.002;4.786;2022-08-19T09:27:27;28.00;99.90
21039;DHT22;10678;51.002;4.786;2022-08-19T09:29:54;27.90;99.90
21039;DHT22;10678;51.002;4.786;2022-08-19T09:32:20;27.70;99.90
21039;DHT22;10678;51.002;4.786;2022-08-19T09:34:46;27.70;99.90
21039;DHT22;10678;51.002;4.786;2022-08-19T09:37:12;27.70;99.90
21039;DHT22;10678;51.002;4.786;2022-08-19T09:39:39;27.70;99.90
21039;DHT22;10678;51.002;4.786;2022-08-19T09:42:06;28.00;99.90
21039;DHT22;10678;51.002;4.786;2022-08-19T09:44:40;28.40;99.90
21039;DHT22;10678;51.002;4.786;2022-08-19T09:47:08;28.60;99.90
21039;DHT22;10678;51.002;4.786;2022-08-19T09:49:34;28.40;99.90
21039;DHT22;10678;51.002;4.786;2022-08-19T09:52:00;28.10;99.90
21039;DHT22;10678;51.002;4.786;2022-08-19T09:54:26;27.70;99.90
21039;DHT22;10678;51.002;4.786;2022-08-19T09:56:53;27.40;99.90
21039;DHT22;10678;51.002;4.786;2022-08-19T09:59:19;27.10;99.90
21039;DHT22;10678;51.002;4.786;2022-08-19T10:01:45;26.80;99.90
21039;DHT22;10678;51.002;4.786;2022-08-19T10:04:11;26.70;99.90
21039;DHT22;10678;51.002;4.786;2022-08-19T10:06:38;26.60;99.90
21039;DHT22;10678;51.002;4.786;2022-08-19T10:09:06;26.60;99.90
21039;DHT22;10678;51.002;4.786;2022-08-19T10:11:34;26.40;99.90
21039;DHT22;10678;51.002;4.786;2022-08-19T10:14:01;26.40;99.90
21039;DHT22;10678;51.002;4.786;2022-08-19T10:16:27;26.30;99.90
21039;DHT22;10678;51.002;4.786;2022-08-19T10:18:53;26.30;99.90
21039;DHT22;10678;51.002;4.786;2022-08-19T10:21:23;26.20;99.90
21039;DHT22;10678;51.002;4.786;2022-08-19T10:23:50;26.10;99.90
21039;DHT22;10678;51.002;4.786;2022-08-19T10:26:20;26.10;99.90
21039;DHT22;10678;51.002;4.786;2022-08-19T10:28:46;26.20;99.90
21039;DHT22;10678;51.002;4.786;2022-08-19T10:31:20;26.40;99.90
21039;DHT22;10678;51.002;4.786;2022-08-19T10:33:50;26.40;99.90
21039;DHT22;10678;51.002;4.786;2022-08-19T10:36:21;26.50;99.90
21039;DHT22;10678;51.002;4.786;2022-08-19T10:38:50;26.60;99.90
21039;DHT22;10678;51.002;4.786;2022-08-19T10:41:22;27.00;99.90
21039;DHT22;10678;51.002;4.786;2022-08-19T10:43:51;27.10;99.90
21039;DHT22;10678;51.002;4.786;2022-08-19T10:46:21;27.30;99.90
21039;DHT22;10678;51.002;4.786;2022-08-19T10:48:47;27.40;99.90
21039;DHT22;10678;51.002;4.786;2022-08-19T10:51:13;27.90;99.90
21039;DHT22;10678;51.002;4.786;2022-08-19T10:53:59;28.40;99.90
21039;DHT22;10678;51.002;4.786;2022-08-19T10:56:27;28.70;99.90
21039;DHT22;10678;51.002;4.786;2022-08-19T10:59:11;29.20;99.90
21039;DHT22;10678;51.002;4.786;2022-08-19T11:01:39;29.80;99.90
21039;DHT22;10678;51.002;4.786;2022-08-19T11:04:06;30.20;99.90
21039;DHT22;10678;51.002;4.786;2022-08-19T11:06:35;31.00;99.90
21039;DHT22;10678;51.002;4.786;2022-08-19T11:09:02;31.60;99.90
21039;DHT22;10678;51.002;4.786;2022-08-19T11:11:28;32.00;99.90
21039;DHT22;10678;51.002;4.786;2022-08-19T11:13:54;32.00;99.90
21039;DHT22;10678;51.002;4.786;2022-08-19T11:16:22;31.40;99.90
21039;DHT22;10678;51.002;4.786;2022-08-19T11:18:51;30.80;99.90
21039;DHT22;10678;51.002;4.786;2022-08-19T11:21:23;30.70;99.90
21039;DHT22;10678;51.002;4.786;2022-08-19T11:23:52;31.00;99.90
21039;DHT22;10678;51.002;4.786;2022-08-19T11:26:19;31.20;99.90
21039;DHT22;10678;51.002;4.786;2022-08-19T11:28:46;31.60;99.90
21039;DHT22;10678;51.002;4.786;2022-08-19T11:31:17;31.40;99.90
21039;DHT22;10678;51.002;4.786;2022-08-19T11:33:43;31.50;99.90
21039;DHT22;10678;51.002;4.786;2022-08-19T11:36:09;31.30;99.90
21039;DHT22;10678;51.002;4.786;2022-08-19T11:38:35;31.10;99.90
21039;DHT22;10678;51.002;4.786;2022-08-19T11:41:06;30.80;99.90
21039;DHT22;10678;51.002;4.786;2022-08-19T11:43:34;30.40;99.90
21039;DHT22;10678;51.002;4.786;2022-08-19T11:46:03;30.20;99.90
21039;DHT22;10678;51.002;4.786;2022-08-19T11:48:28;29.80;99.90
21039;DHT22;10678;51.002;4.786;2022-08-19T11:50:54;29.60;99.90
21039;DHT22;10678;51.002;4.786;2022-08-19T11:53:23;29.40;99.90
21039;DHT22;10678;51.002;4.786;2022-08-19T11:55:50;29.30;99.90
21039;DHT22;10678;51.002;4.786;2022-08-19T11:58:19;29.20;99.90
21039;DHT22;10678;51.002;4.786;2022-08-19T12:00:44;28.80;99.90
21039;DHT22;10678;51.002;4.786;2022-08-19T12:03:11;28.60;99.90
21039;DHT22;10678;51.002;4.786;2022-08-19T12:05:39;28.60;99.90
21039;DHT22;10678;51.002;4.786;2022-08-19T12:08:05;28.40;99.90
21039;DHT22;10678;51.002;4.786;2022-08-19T12:10:32;28.30;99.90
21039;DHT22;10678;51.002;4.786;2022-08-19T12:12:57;28.10;99.90
21039;DHT22;10678;51.002;4.786;2022-08-19T12:15:23;28.00;99.90
21039;DHT22;10678;51.002;4.786;2022-08-19T12:17:49;27.90;99.90
21039;DHT22;10678;51.002;4.786;2022-08-19T12:20:15;27.90;99.90
21039;DHT22;10678;51.002;4.786;2022-08-19T12:22:42;28.00;99.90
21039;DHT22;10678;51.002;4.786;2022-08-19T12:25:12;27.90;99.90
21039;DHT22;10678;51.002;4.786;2022-08-19T12:27:38;27.90;99.90
21039;DHT22;10678;51.002;4.786;2022-08-19T12:30:06;27.80;99.90
21039;DHT22;10678;51.002;4.786;2022-08-19T12:32:32;27.90;99.90
21039;DHT22;10678;51.002;4.786;2022-08-19T12:34:58;27.90;99.90
21039;DHT22;10678;51.002;4.786;2022-08-19T12:37:24;27.90;99.90
21039;DHT22;10678;51.002;4.786;2022-08-19T12:39:49;28.20;99.90
21039;DHT22;10678;51.002;4.786;2022-08-19T12:42:15;28.30;99.90
21039;DHT22;10678;51.002;4.786;2022-08-19T12:44:42;28.50;99.90
21039;DHT22;10678;51.002;4.786;2022-08-19T12:47:11;28.70;99.90
21039;DHT22;10678;51.002;4.786;2022-08-19T12:49:39;28.50;99.90
21039;DHT22;10678;51.002;4.786;2022-08-19T12:52:07;29.00;99.90
21039;DHT22;10678;51.002;4.786;2022-08-19T12:54:34;29.40;99.90
21039;DHT22;10678;51.002;4.786;2022-08-19T12:57:00;29.70;99.90
21039;DHT22;10678;51.002;4.786;2022-08-19T12:59:29;29.80;99.90
21039;DHT22;10678;51.002;4.786;2022-08-19T13:01:55;30.60;99.90
21039;DHT22;10678;51.002;4.786;2022-08-19T13:04:21;31.00;99.90
21039;DHT22;10678;51.002;4.786;2022-08-19T13:06:46;32.50;99.90
21039;DHT22;10678;51.002;4.786;2022-08-19T13:09:12;34.00;99.90
21039;DHT22;10678;51.002;4.786;2022-08-19T13:11:37;34.60;99.90
21039;DHT22;10678;51.002;4.786;2022-08-19T13:14:04;34.70;99.90
21039;DHT22;10678;51.002;4.786;2022-08-19T13:16:30;36.00;98.80
21039;DHT22;10678;51.002;4.786;2022-08-19T13:18:57;36.50;96.40
21039;DHT22;10678;51.002;4.786;2022-08-19T13:21:27;36.60;95.10
21039;DHT22;10678;51.002;4.786;2022-08-19T13:23:53;36.80;95.10
21039;DHT22;10678;51.002;4.786;2022-08-19T13:26:20;36.80;92.90
21039;DHT22;10678;51.002;4.786;2022-08-19T13:28:45;36.20;93.50
21039;DHT22;10678;51.002;4.786;2022-08-19T13:31:34;36.60;93.40
21039;DHT22;10678;51.002;4.786;2022-08-19T13:34:25;36.00;91.30
21039;DHT22;10678;51.002;4.786;2022-08-19T13:36:52;34.80;93.80
21039;DHT22;10678;51.002;4.786;2022-08-19T13:39:18;35.20;95.00
21039;DHT22;10678;51.002;4.786;2022-08-19T13:41:46;36.40;95.00
21039;DHT22;10678;51.002;4.786;2022-08-19T13:44:16;37.50;92.50
21039;DHT22;10678;51.002;4.786;2022-08-19T13:46:44;37.50;89.00
21039;DHT22;10678;51.002;4.786;2022-08-19T13:49:11;36.90;89.80
21039;DHT22;10678;51.002;4.786;2022-08-19T13:51:39;35.90;90.20
21039;DHT22;10678;51.002;4.786;2022-08-19T13:54:08;34.70;92.30
21039;DHT22;10678;51.002;4.786;2022-08-19T13:56:35;34.10;95.00
21039;DHT22;10678;51.002;4.786;2022-08-19T13:59:01;33.60;94.80
21039;DHT22;10678;51.002;4.786;2022-08-19T14:01:27;33.20;95.40
21039;DHT22;10678;51.002;4.786;2022-08-19T14:03:53;32.80;96.50
21039;DHT22;10678;51.002;4.786;2022-08-19T14:06:20;32.50;96.50
21039;DHT22;10678;51.002;4.786;2022-08-19T14:08:46;32.20;98.60
21039;DHT22;10678;51.002;4.786;2022-08-19T14:11:12;32.00;99.60
21039;DHT22;10678;51.002;4.786;2022-08-19T14:13:38;32.10;99.50
21039;DHT22;10678;51.002;4.786;2022-08-19T14:16:08;32.00;99.80
21039;DHT22;10678;51.002;4.786;2022-08-19T14:18:34;31.90;99.90
21039;DHT22;10678;51.002;4.786;2022-08-19T14:21:00;31.60;99.90
21039;DHT22;10678;51.002;4.786;2022-08-19T14:23:26;31.30;99.90
21039;DHT22;10678;51.002;4.786;2022-08-19T14:25:51;30.90;99.90
21039;DHT22;10678;51.002;4.786;2022-08-19T14:28:17;30.60;99.90
21039;DHT22;10678;51.002;4.786;2022-08-19T14:30:43;30.60;99.90
21039;DHT22;10678;51.002;4.786;2022-08-19T14:33:10;30.60;99.90
21039;DHT22;10678;51.002;4.786;2022-08-19T14:35:36;30.40;99.90
21039;DHT22;10678;51.002;4.786;2022-08-19T14:38:03;30.10;99.90
21039;DHT22;10678;51.002;4.786;2022-08-19T14:40:30;30.10;99.90
21039;DHT22;10678;51.002;4.786;2022-08-19T14:43:01;29.80;99.90
21039;DHT22;10678;51.002;4.786;2022-08-19T14:45:31;29.60;99.90
21039;DHT22;10678;51.002;4.786;2022-08-19T14:47:57;29.50;99.90
21039;DHT22;10678;51.002;4.786;2022-08-19T14:50:24;29.20;99.90
21039;DHT22;10678;51.002;4.786;2022-08-19T14:53:04;29.00;99.90
21039;DHT22;10678;51.002;4.786;2022-08-19T14:55:31;28.80;99.90
21039;DHT22;10678;51.002;4.786;2022-08-19T14:57:57;28.70;99.90
21039;DHT22;10678;51.002;4.786;2022-08-19T15:00:23;28.50;99.90
21039;DHT22;10678;51.002;4.786;2022-08-19T15:02:50;28.60;99.90
21039;DHT22;10678;51.002;4.786;2022-08-19T15:05:16;28.70;99.90
21039;DHT22;10678;51.002;4.786;2022-08-19T15:07:42;28.70;99.90
21039;DHT22;10678;51.002;4.786;2022-08-19T15:10:09;28.70;99.90
21039;DHT22;10678;51.002;4.786;2022-08-19T15:12:38;28.80;99.90
21039;DHT22;10678;51.002;4.786;2022-08-19T15:15:13;28.70;99.90
21039;DHT22;10678;51.002;4.786;2022-08-19T15:17:40;28.50;99.90
21039;DHT22;10678;51.002;4.786;2022-08-19T15:20:07;28.10;99.90
21039;DHT22;10678;51.002;4.786;2022-08-19T15:22:33;28.00;99.90
21039;DHT22;10678;51.002;4.786;2022-08-19T15:25:00;27.80;99.90
21039;DHT22;10678;51.002;4.786;2022-08-19T15:27:26;27.70;99.90
21039;DHT22;10678;51.002;4.786;2022-08-19T15:29:52;27.70;99.90
21039;DHT22;10678;51.002;4.786;2022-08-19T15:32:17;27.70;99.90
21039;DHT22;10678;51.002;4.786;2022-08-19T15:34:44;27.60;99.90
21039;DHT22;10678;51.002;4.786;2022-08-19T15:37:11;27.60;99.90
21039;DHT22;10678;51.002;4.786;2022-08-19T15:39:36;27.60;99.90
21039;DHT22;10678;51.002;4.786;2022-08-19T15:42:02;27.40;99.90